sensor_id;sensor_type;location;lat;lon;timestamp;P1;durP1;ratioP1;P2;durP2;ratioP2
72882;SDS011;61017;37.812;-122.286;2023-06-10T00:01:23;1.30;;;0.90;;
72882;SDS011;61017;37.812;-122.286;2023-06-10T00:02:55;0.82;;;0.70;;
72882;SDS011;61017;37.812;-122.286;2023-06-10T00:04:26;1.38;;;0.80;;
72882;SDS011;61017;37.812;-122.286;2023-06-10T00:05:58;1.77;;;0.88;;
72882;SDS011;61017;37.812;-122.286;2023-06-10T00:07:32;2.03;;;0.98;;
72882;SDS011;61017;37.812;-122.286;2023-06-10T00:09:04;1.27;;;0.90;;
72882;SDS011;61017;37.812;-122.286;2023-06-10T00:10:36;1.52;;;0.77;;
72882;SDS011;61017;37.812;-122.286;2023-06-10T00:12:09;1.20;;;0.80;;
72882;SDS011;61017;37.812;-122.286;2023-06-10T00:13:40;1.52;;;0.80;;
72882;SDS011;61017;37.812;-122.286;2023-06-10T00:15:12;1.27;;;0.90;;
72882;SDS011;61017;37.812;-122.286;2023-06-10T00:16:43;1.13;;;0.90;;
72882;SDS011;61017;37.812;-122.286;2023-06-10T00:18:16;2.55;;;0.93;;
72882;SDS011;61017;37.812;-122.286;2023-06-10T00:19:48;1.23;;;0.77;;
72882;SDS011;61017;37.812;-122.286;2023-06-10T00:21:19;1.30;;;0.90;;
72882;SDS011;61017;37.812;-122.286;2023-06-10T00:22:51;1.85;;;0.93;;
72882;SDS011;61017;37.812;-122.286;2023-06-10T00:24:22;1.70;;;0.80;;
72882;SDS011;61017;37.812;-122.286;2023-06-10T00:26:00;1.48;;;0.85;;
72882;SDS011;61017;37.812;-122.286;2023-06-10T00:27:31;1.42;;;0.95;;
72882;SDS011;61017;37.812;-122.286;2023-06-10T00:29:03;1.13;;;0.80;;
72882;SDS011;61017;37.812;-122.286;2023-06-10T00:30:35;1.20;;;0.70;;
72882;SDS011;61017;37.812;-122.286;2023-06-10T00:32:06;1.45;;;0.80;;
72882;SDS011;61017;37.812;-122.286;2023-06-10T00:33:38;1.27;;;0.90;;
72882;SDS011;61017;37.812;-122.286;2023-06-10T00:35:10;2.22;;;0.90;;
72882;SDS011;61017;37.812;-122.286;2023-06-10T00:36:41;1.30;;;0.70;;
72882;SDS011;61017;37.812;-122.286;2023-06-10T00:38:13;1.48;;;0.77;;
72882;SDS011;61017;37.812;-122.286;2023-06-10T00:39:45;1.63;;;0.70;;
72882;SDS011;61017;37.812;-122.286;2023-06-10T00:41:17;1.00;;;0.80;;
72882;SDS011;61017;37.812;-122.286;2023-06-10T00:42:48;1.35;;;0.82;;
72882;SDS011;61017;37.812;-122.286;2023-06-10T00:44:20;1.17;;;0.80;;
72882;SDS011;61017;37.812;-122.286;2023-06-10T00:45:52;1.55;;;0.70;;
72882;SDS011;61017;37.812;-122.286;2023-06-10T00:47:24;0.85;;;0.70;;
72882;SDS011;61017;37.812;-122.286;2023-06-10T00:48:57;1.13;;;0.77;;
72882;SDS011;61017;37.812;-122.286;2023-06-10T00:50:28;0.93;;;0.77;;
72882;SDS011;61017;37.812;-122.286;2023-06-10T00:52:01;1.83;;;0.80;;
72882;SDS011;61017;37.812;-122.286;2023-06-10T00:53:36;1.13;;;0.65;;
72882;SDS011;61017;37.812;-122.286;2023-06-10T00:55:09;1.70;;;0.68;;
72882;SDS011;61017;37.812;-122.286;2023-06-10T00:56:41;1.15;;;0.80;;
72882;SDS011;61017;37.812;-122.286;2023-06-10T00:58:14;1.20;;;0.80;;
72882;SDS011;61017;37.812;-122.286;2023-06-10T00:59:48;1.63;;;0.73;;
72882;SDS011;61017;37.812;-122.286;2023-06-10T01:01:23;1.30;;;0.75;;
72882;SDS011;61017;37.812;-122.286;2023-06-10T01:02:54;0.90;;;0.65;;
72882;SDS011;61017;37.812;-122.286;2023-06-10T01:04:26;1.00;;;0.68;;
72882;SDS011;61017;37.812;-122.286;2023-06-10T01:06:02;1.30;;;0.80;;
72882;SDS011;61017;37.812;-122.286;2023-06-10T01:08:01;1.27;;;0.70;;
72882;SDS011;61017;37.812;-122.286;2023-06-10T01:10:01;1.50;;;0.80;;
72882;SDS011;61017;37.812;-122.286;2023-06-10T01:11:46;1.10;;;0.70;;
72882;SDS011;61017;37.812;-122.286;2023-06-10T01:13:29;0.98;;;0.73;;
72882;SDS011;61017;37.812;-122.286;2023-06-10T01:15:01;2.10;;;0.90;;
72882;SDS011;61017;37.812;-122.286;2023-06-10T01:16:33;1.45;;;0.80;;
72882;SDS011;61017;37.812;-122.286;2023-06-10T01:18:06;0.85;;;0.70;;
72882;SDS011;61017;37.812;-122.286;2023-06-10T01:19:38;1.50;;;0.80;;
72882;SDS011;61017;37.812;-122.286;2023-06-10T01:21:19;2.10;;;0.80;;
72882;SDS011;61017;37.812;-122.286;2023-06-10T01:22:52;1.40;;;0.70;;
72882;SDS011;61017;37.812;-122.286;2023-06-10T01:25:57;0.95;;;0.70;;
72882;SDS011;61017;37.812;-122.286;2023-06-10T01:27:33;1.25;;;0.80;;
72882;SDS011;61017;37.812;-122.286;2023-06-10T01:29:24;1.33;;;0.70;;
72882;SDS011;61017;37.812;-122.286;2023-06-10T01:32:51;1.20;;;0.63;;
72882;SDS011;61017;37.812;-122.286;2023-06-10T01:34:23;1.52;;;0.60;;
72882;SDS011;61017;37.812;-122.286;2023-06-10T01:35:57;1.35;;;0.80;;
72882;SDS011;61017;37.812;-122.286;2023-06-10T01:37:30;0.90;;;0.68;;
72882;SDS011;61017;37.812;-122.286;2023-06-10T01:39:02;1.38;;;0.70;;
72882;SDS011;61017;37.812;-122.286;2023-06-10T01:42:07;1.20;;;0.77;;
72882;SDS011;61017;37.812;-122.286;2023-06-10T01:43:44;2.35;;;0.90;;
72882;SDS011;61017;37.812;-122.286;2023-06-10T01:45:16;1.23;;;0.70;;
72882;SDS011;61017;37.812;-122.286;2023-06-10T01:46:48;1.50;;;0.68;;
72882;SDS011;61017;37.812;-122.286;2023-06-10T01:48:22;1.02;;;0.65;;
72882;SDS011;61017;37.812;-122.286;2023-06-10T01:49:57;1.33;;;0.77;;
72882;SDS011;61017;37.812;-122.286;2023-06-10T01:51:29;0.98;;;0.68;;
72882;SDS011;61017;37.812;-122.286;2023-06-10T01:53:00;1.20;;;0.80;;
72882;SDS011;61017;37.812;-122.286;2023-06-10T01:54:32;1.00;;;0.63;;
72882;SDS011;61017;37.812;-122.286;2023-06-10T01:56:04;1.60;;;0.77;;
72882;SDS011;61017;37.812;-122.286;2023-06-10T01:57:36;1.00;;;0.60;;
72882;SDS011;61017;37.812;-122.286;2023-06-10T01:59:07;1.50;;;0.70;;
72882;SDS011;61017;37.812;-122.286;2023-06-10T02:00:39;0.95;;;0.60;;
72882;SDS011;61017;37.812;-122.286;2023-06-10T02:02:11;1.27;;;0.77;;
72882;SDS011;61017;37.812;-122.286;2023-06-10T02:03:42;0.75;;;0.60;;
72882;SDS011;61017;37.812;-122.286;2023-06-10T02:05:14;1.77;;;0.60;;
72882;SDS011;61017;37.812;-122.286;2023-06-10T02:06:46;1.70;;;0.68;;
72882;SDS011;61017;37.812;-122.286;2023-06-10T02:08:17;1.25;;;0.80;;
72882;SDS011;61017;37.812;-122.286;2023-06-10T02:09:49;0.50;;;0.50;;
72882;SDS011;61017;37.812;-122.286;2023-06-10T02:11:20;0.65;;;0.43;;
72882;SDS011;61017;37.812;-122.286;2023-06-10T02:12:52;0.88;;;0.60;;
72882;SDS011;61017;37.812;-122.286;2023-06-10T02:14:23;0.70;;;0.60;;
72882;SDS011;61017;37.812;-122.286;2023-06-10T02:15:55;1.30;;;0.65;;
72882;SDS011;61017;37.812;-122.286;2023-06-10T02:17:26;1.38;;;0.80;;
72882;SDS011;61017;37.812;-122.286;2023-06-10T02:18:58;1.77;;;0.60;;
72882;SDS011;61017;37.812;-122.286;2023-06-10T02:20:30;1.42;;;0.50;;
72882;SDS011;61017;37.812;-122.286;2023-06-10T02:22:01;1.17;;;0.60;;
72882;SDS011;61017;37.812;-122.286;2023-06-10T02:23:33;0.82;;;0.60;;
72882;SDS011;61017;37.812;-122.286;2023-06-10T02:25:05;0.65;;;0.50;;
72882;SDS011;61017;37.812;-122.286;2023-06-10T02:26:37;0.60;;;0.50;;
72882;SDS011;61017;37.812;-122.286;2023-06-10T02:28:08;1.15;;;0.60;;
72882;SDS011;61017;37.812;-122.286;2023-06-10T02:29:40;0.90;;;0.60;;
72882;SDS011;61017;37.812;-122.286;2023-06-10T02:31:12;1.30;;;0.70;;
72882;SDS011;61017;37.812;-122.286;2023-06-10T02:32:44;1.02;;;0.60;;
72882;SDS011;61017;37.812;-122.286;2023-06-10T02:34:15;1.48;;;0.60;;
72882;SDS011;61017;37.812;-122.286;2023-06-10T02:35:47;0.95;;;0.50;;
72882;SDS011;61017;37.812;-122.286;2023-06-10T02:37:18;2.88;;;0.80;;
72882;SDS011;61017;37.812;-122.286;2023-06-10T02:38:50;1.05;;;0.70;;
72882;SDS011;61017;37.812;-122.286;2023-06-10T02:40:21;1.27;;;0.52;;
72882;SDS011;61017;37.812;-122.286;2023-06-10T02:41:53;1.13;;;0.57;;
72882;SDS011;61017;37.812;-122.286;2023-06-10T02:43:25;1.10;;;0.50;;
72882;SDS011;61017;37.812;-122.286;2023-06-10T02:44:56;0.95;;;0.50;;
72882;SDS011;61017;37.812;-122.286;2023-06-10T02:46:28;0.60;;;0.40;;
72882;SDS011;61017;37.812;-122.286;2023-06-10T02:47:59;1.10;;;0.63;;
72882;SDS011;61017;37.812;-122.286;2023-06-10T02:49:34;0.60;;;0.40;;
72882;SDS011;61017;37.812;-122.286;2023-06-10T02:51:05;0.85;;;0.50;;
72882;SDS011;61017;37.812;-122.286;2023-06-10T02:52:40;1.77;;;0.60;;
72882;SDS011;61017;37.812;-122.286;2023-06-10T02:54:11;1.05;;;0.60;;
72882;SDS011;61017;37.812;-122.286;2023-06-10T02:55:43;1.00;;;0.60;;
72882;SDS011;61017;37.812;-122.286;2023-06-10T02:57:14;0.85;;;0.50;;
72882;SDS011;61017;37.812;-122.286;2023-06-10T02:58:46;1.27;;;0.57;;
72882;SDS011;61017;37.812;-122.286;2023-06-10T03:00:18;0.82;;;0.60;;
72882;SDS011;61017;37.812;-122.286;2023-06-10T03:01:50;2.22;;;0.80;;
72882;SDS011;61017;37.812;-122.286;2023-06-10T03:03:22;0.88;;;0.43;;
72882;SDS011;61017;37.812;-122.286;2023-06-10T03:04:56;0.63;;;0.43;;
72882;SDS011;61017;37.812;-122.286;2023-06-10T03:06:28;1.55;;;0.70;;
72882;SDS011;61017;37.812;-122.286;2023-06-10T03:07:59;1.02;;;0.60;;
72882;SDS011;61017;37.812;-122.286;2023-06-10T03:09:31;0.68;;;0.50;;
72882;SDS011;61017;37.812;-122.286;2023-06-10T03:11:03;1.35;;;0.60;;
72882;SDS011;61017;37.812;-122.286;2023-06-10T03:12:35;0.70;;;0.60;;
72882;SDS011;61017;37.812;-122.286;2023-06-10T03:14:06;0.68;;;0.60;;
72882;SDS011;61017;37.812;-122.286;2023-06-10T03:15:41;1.00;;;0.60;;
72882;SDS011;61017;37.812;-122.286;2023-06-10T03:17:12;0.98;;;0.60;;
72882;SDS011;61017;37.812;-122.286;2023-06-10T03:18:44;1.13;;;0.70;;
72882;SDS011;61017;37.812;-122.286;2023-06-10T03:20:15;1.30;;;0.68;;
72882;SDS011;61017;37.812;-122.286;2023-06-10T03:21:49;2.15;;;0.50;;
72882;SDS011;61017;37.812;-122.286;2023-06-10T03:23:28;0.98;;;0.50;;
72882;SDS011;61017;37.812;-122.286;2023-06-10T03:25:00;1.15;;;0.73;;
72882;SDS011;61017;37.812;-122.286;2023-06-10T03:26:31;0.90;;;0.57;;
72882;SDS011;61017;37.812;-122.286;2023-06-10T03:28:03;1.38;;;0.60;;
72882;SDS011;61017;37.812;-122.286;2023-06-10T03:29:35;1.02;;;0.65;;
72882;SDS011;61017;37.812;-122.286;2023-06-10T03:31:07;0.98;;;0.57;;
72882;SDS011;61017;37.812;-122.286;2023-06-10T03:32:42;2.45;;;0.60;;
72882;SDS011;61017;37.812;-122.286;2023-06-10T03:34:13;1.25;;;0.77;;
72882;SDS011;61017;37.812;-122.286;2023-06-10T03:35:45;2.53;;;0.70;;
72882;SDS011;61017;37.812;-122.286;2023-06-10T03:37:16;1.00;;;0.57;;
72882;SDS011;61017;37.812;-122.286;2023-06-10T03:38:48;1.08;;;0.60;;
72882;SDS011;61017;37.812;-122.286;2023-06-10T03:40:20;2.33;;;0.65;;
72882;SDS011;61017;37.812;-122.286;2023-06-10T03:41:51;0.90;;;0.63;;
72882;SDS011;61017;37.812;-122.286;2023-06-10T03:43:23;0.57;;;0.55;;
72882;SDS011;61017;37.812;-122.286;2023-06-10T03:44:54;1.10;;;0.70;;
72882;SDS011;61017;37.812;-122.286;2023-06-10T03:46:26;1.33;;;0.65;;
72882;SDS011;61017;37.812;-122.286;2023-06-10T03:47:58;1.48;;;0.63;;
72882;SDS011;61017;37.812;-122.286;2023-06-10T03:49:29;0.95;;;0.60;;
72882;SDS011;61017;37.812;-122.286;2023-06-10T03:51:01;0.90;;;0.70;;
72882;SDS011;61017;37.812;-122.286;2023-06-10T03:52:33;1.10;;;0.70;;
72882;SDS011;61017;37.812;-122.286;2023-06-10T03:54:05;1.50;;;0.70;;
72882;SDS011;61017;37.812;-122.286;2023-06-10T03:55:37;1.00;;;0.70;;
72882;SDS011;61017;37.812;-122.286;2023-06-10T03:57:08;1.13;;;0.50;;
72882;SDS011;61017;37.812;-122.286;2023-06-10T03:58:40;0.98;;;0.68;;
72882;SDS011;61017;37.812;-122.286;2023-06-10T04:00:12;2.17;;;0.68;;
72882;SDS011;61017;37.812;-122.286;2023-06-10T04:01:44;2.45;;;0.70;;
72882;SDS011;61017;37.812;-122.286;2023-06-10T04:03:15;1.63;;;0.70;;
72882;SDS011;61017;37.812;-122.286;2023-06-10T04:04:47;1.67;;;0.55;;
72882;SDS011;61017;37.812;-122.286;2023-06-10T04:06:19;1.98;;;0.60;;
72882;SDS011;61017;37.812;-122.286;2023-06-10T04:07:51;1.13;;;0.60;;
72882;SDS011;61017;37.812;-122.286;2023-06-10T04:09:25;1.00;;;0.60;;
72882;SDS011;61017;37.812;-122.286;2023-06-10T04:10:57;1.00;;;0.65;;
72882;SDS011;61017;37.812;-122.286;2023-06-10T04:12:28;1.10;;;0.60;;
72882;SDS011;61017;37.812;-122.286;2023-06-10T04:14:00;1.67;;;0.70;;
72882;SDS011;61017;37.812;-122.286;2023-06-10T04:15:32;0.98;;;0.68;;
72882;SDS011;61017;37.812;-122.286;2023-06-10T04:17:04;1.25;;;0.70;;
72882;SDS011;61017;37.812;-122.286;2023-06-10T04:18:36;1.08;;;0.70;;
72882;SDS011;61017;37.812;-122.286;2023-06-10T04:20:08;1.75;;;0.63;;
72882;SDS011;61017;37.812;-122.286;2023-06-10T04:21:39;1.45;;;0.70;;
72882;SDS011;61017;37.812;-122.286;2023-06-10T04:23:11;1.15;;;0.70;;
72882;SDS011;61017;37.812;-122.286;2023-06-10T04:24:43;1.92;;;1.00;;
72882;SDS011;61017;37.812;-122.286;2023-06-10T04:26:15;0.80;;;0.60;;
72882;SDS011;61017;37.812;-122.286;2023-06-10T04:27:47;1.92;;;0.73;;
72882;SDS011;61017;37.812;-122.286;2023-06-10T04:29:18;1.33;;;0.70;;
72882;SDS011;61017;37.812;-122.286;2023-06-10T04:30:50;2.47;;;0.80;;
72882;SDS011;61017;37.812;-122.286;2023-06-10T04:32:21;1.38;;;0.70;;
72882;SDS011;61017;37.812;-122.286;2023-06-10T04:33:53;1.15;;;0.70;;
72882;SDS011;61017;37.812;-122.286;2023-06-10T04:35:25;1.50;;;0.75;;
72882;SDS011;61017;37.812;-122.286;2023-06-10T04:36:56;1.63;;;0.85;;
72882;SDS011;61017;37.812;-122.286;2023-06-10T04:38:28;0.85;;;0.57;;
72882;SDS011;61017;37.812;-122.286;2023-06-10T04:40:00;1.42;;;0.70;;
72882;SDS011;61017;37.812;-122.286;2023-06-10T04:41:33;1.48;;;0.90;;
72882;SDS011;61017;37.812;-122.286;2023-06-10T04:43:05;1.25;;;0.70;;
72882;SDS011;61017;37.812;-122.286;2023-06-10T04:44:36;1.27;;;0.70;;
72882;SDS011;61017;37.812;-122.286;2023-06-10T04:46:11;1.38;;;0.80;;
72882;SDS011;61017;37.812;-122.286;2023-06-10T04:47:43;1.23;;;0.70;;
72882;SDS011;61017;37.812;-122.286;2023-06-10T04:49:14;1.42;;;0.77;;
72882;SDS011;61017;37.812;-122.286;2023-06-10T04:50:47;1.80;;;0.82;;
72882;SDS011;61017;37.812;-122.286;2023-06-10T04:52:18;2.28;;;0.90;;
72882;SDS011;61017;37.812;-122.286;2023-06-10T04:53:50;1.67;;;0.80;;
72882;SDS011;61017;37.812;-122.286;2023-06-10T04:55:21;1.17;;;0.75;;
72882;SDS011;61017;37.812;-122.286;2023-06-10T04:56:53;1.30;;;0.70;;
72882;SDS011;61017;37.812;-122.286;2023-06-10T04:58:25;1.23;;;0.70;;
72882;SDS011;61017;37.812;-122.286;2023-06-10T04:59:56;1.50;;;0.80;;
72882;SDS011;61017;37.812;-122.286;2023-06-10T05:01:28;1.52;;;0.70;;
72882;SDS011;61017;37.812;-122.286;2023-06-10T05:02:59;1.40;;;0.70;;
72882;SDS011;61017;37.812;-122.286;2023-06-10T05:04:31;2.53;;;0.85;;
72882;SDS011;61017;37.812;-122.286;2023-06-10T05:06:03;2.20;;;0.73;;
72882;SDS011;61017;37.812;-122.286;2023-06-10T05:07:34;1.98;;;0.80;;
72882;SDS011;61017;37.812;-122.286;2023-06-10T05:09:06;1.35;;;0.80;;
72882;SDS011;61017;37.812;-122.286;2023-06-10T05:10:37;1.30;;;0.82;;
72882;SDS011;61017;37.812;-122.286;2023-06-10T05:12:09;1.83;;;0.88;;
72882;SDS011;61017;37.812;-122.286;2023-06-10T05:13:45;1.30;;;0.80;;
72882;SDS011;61017;37.812;-122.286;2023-06-10T05:15:16;1.90;;;0.80;;
72882;SDS011;61017;37.812;-122.286;2023-06-10T05:16:49;3.25;;;0.90;;
72882;SDS011;61017;37.812;-122.286;2023-06-10T05:18:21;1.80;;;1.00;;
72882;SDS011;61017;37.812;-122.286;2023-06-10T05:19:52;1.45;;;0.80;;
72882;SDS011;61017;37.812;-122.286;2023-06-10T05:21:24;1.40;;;0.90;;
72882;SDS011;61017;37.812;-122.286;2023-06-10T05:22:56;2.08;;;0.98;;
72882;SDS011;61017;37.812;-122.286;2023-06-10T05:24:27;1.30;;;0.75;;
72882;SDS011;61017;37.812;-122.286;2023-06-10T05:25:59;1.50;;;0.88;;
72882;SDS011;61017;37.812;-122.286;2023-06-10T05:27:31;1.52;;;0.90;;
72882;SDS011;61017;37.812;-122.286;2023-06-10T05:29:02;1.27;;;0.73;;
72882;SDS011;61017;37.812;-122.286;2023-06-10T05:30:35;1.50;;;0.82;;
72882;SDS011;61017;37.812;-122.286;2023-06-10T05:32:07;1.95;;;0.90;;
72882;SDS011;61017;37.812;-122.286;2023-06-10T05:33:40;2.00;;;1.10;;
72882;SDS011;61017;37.812;-122.286;2023-06-10T05:35:12;1.30;;;0.90;;
72882;SDS011;61017;37.812;-122.286;2023-06-10T05:36:46;1.65;;;0.80;;
72882;SDS011;61017;37.812;-122.286;2023-06-10T05:38:21;1.63;;;0.90;;
72882;SDS011;61017;37.812;-122.286;2023-06-10T05:39:52;2.05;;;1.10;;
72882;SDS011;61017;37.812;-122.286;2023-06-10T05:41:24;3.67;;;1.10;;
72882;SDS011;61017;37.812;-122.286;2023-06-10T05:42:56;2.78;;;1.00;;
72882;SDS011;61017;37.812;-122.286;2023-06-10T05:44:27;3.55;;;1.15;;
72882;SDS011;61017;37.812;-122.286;2023-06-10T05:45:59;1.58;;;0.88;;
72882;SDS011;61017;37.812;-122.286;2023-06-10T05:47:30;1.27;;;0.80;;
72882;SDS011;61017;37.812;-122.286;2023-06-10T05:49:03;1.67;;;1.00;;
72882;SDS011;61017;37.812;-122.286;2023-06-10T05:50:34;1.65;;;0.90;;
72882;SDS011;61017;37.812;-122.286;2023-06-10T05:52:06;3.28;;;1.10;;
72882;SDS011;61017;37.812;-122.286;2023-06-10T05:53:38;2.63;;;1.10;;
72882;SDS011;61017;37.812;-122.286;2023-06-10T05:55:09;1.58;;;1.05;;
72882;SDS011;61017;37.812;-122.286;2023-06-10T05:56:41;1.60;;;0.90;;
72882;SDS011;61017;37.812;-122.286;2023-06-10T05:58:13;2.05;;;0.95;;
72882;SDS011;61017;37.812;-122.286;2023-06-10T05:59:45;1.60;;;0.83;;
72882;SDS011;61017;37.812;-122.286;2023-06-10T06:01:16;2.17;;;1.00;;
72882;SDS011;61017;37.812;-122.286;2023-06-10T06:02:48;1.80;;;1.00;;
72882;SDS011;61017;37.812;-122.286;2023-06-10T06:04:20;1.60;;;1.00;;
72882;SDS011;61017;37.812;-122.286;2023-06-10T06:05:51;2.25;;;0.90;;
72882;SDS011;61017;37.812;-122.286;2023-06-10T06:07:23;1.67;;;0.82;;
72882;SDS011;61017;37.812;-122.286;2023-06-10T06:08:55;1.90;;;0.93;;
72882;SDS011;61017;37.812;-122.286;2023-06-10T06:10:26;1.73;;;1.00;;
72882;SDS011;61017;37.812;-122.286;2023-06-10T06:11:58;2.55;;;1.00;;
72882;SDS011;61017;37.812;-122.286;2023-06-10T06:13:30;2.20;;;1.00;;
72882;SDS011;61017;37.812;-122.286;2023-06-10T06:15:02;1.77;;;0.90;;
72882;SDS011;61017;37.812;-122.286;2023-06-10T06:16:34;1.42;;;1.02;;
72882;SDS011;61017;37.812;-122.286;2023-06-10T06:18:06;2.47;;;0.93;;
72882;SDS011;61017;37.812;-122.286;2023-06-10T06:19:38;1.50;;;1.00;;
72882;SDS011;61017;37.812;-122.286;2023-06-10T06:21:09;1.92;;;1.10;;
72882;SDS011;61017;37.812;-122.286;2023-06-10T06:22:44;1.23;;;0.90;;
72882;SDS011;61017;37.812;-122.286;2023-06-10T06:24:17;2.03;;;0.90;;
72882;SDS011;61017;37.812;-122.286;2023-06-10T06:25:48;1.73;;;1.00;;
72882;SDS011;61017;37.812;-122.286;2023-06-10T06:27:20;2.42;;;1.00;;
72882;SDS011;61017;37.812;-122.286;2023-06-10T06:28:51;1.80;;;1.00;;
72882;SDS011;61017;37.812;-122.286;2023-06-10T06:30:23;1.85;;;1.00;;
72882;SDS011;61017;37.812;-122.286;2023-06-10T06:31:54;1.60;;;1.00;;
72882;SDS011;61017;37.812;-122.286;2023-06-10T06:33:26;1.77;;;1.10;;
72882;SDS011;61017;37.812;-122.286;2023-06-10T06:34:58;2.30;;;1.20;;
72882;SDS011;61017;37.812;-122.286;2023-06-10T06:36:29;2.05;;;1.08;;
72882;SDS011;61017;37.812;-122.286;2023-06-10T06:38:01;2.00;;;1.10;;
72882;SDS011;61017;37.812;-122.286;2023-06-10T06:39:32;1.80;;;1.00;;
72882;SDS011;61017;37.812;-122.286;2023-06-10T06:41:04;3.30;;;1.10;;
72882;SDS011;61017;37.812;-122.286;2023-06-10T06:42:35;2.10;;;1.10;;
72882;SDS011;61017;37.812;-122.286;2023-06-10T06:44:07;2.63;;;1.10;;
72882;SDS011;61017;37.812;-122.286;2023-06-10T06:45:38;1.90;;;0.98;;
72882;SDS011;61017;37.812;-122.286;2023-06-10T06:47:10;1.90;;;1.10;;
72882;SDS011;61017;37.812;-122.286;2023-06-10T06:48:42;1.85;;;1.10;;
72882;SDS011;61017;37.812;-122.286;2023-06-10T06:50:13;1.95;;;0.93;;
72882;SDS011;61017;37.812;-122.286;2023-06-10T06:51:45;2.17;;;1.10;;
72882;SDS011;61017;37.812;-122.286;2023-06-10T06:53:16;2.20;;;0.82;;
72882;SDS011;61017;37.812;-122.286;2023-06-10T06:54:48;2.38;;;1.17;;
72882;SDS011;61017;37.812;-122.286;2023-06-10T06:56:20;2.33;;;1.20;;
72882;SDS011;61017;37.812;-122.286;2023-06-10T06:57:51;2.17;;;0.98;;
72882;SDS011;61017;37.812;-122.286;2023-06-10T06:59:23;2.03;;;1.05;;
72882;SDS011;61017;37.812;-122.286;2023-06-10T07:00:54;1.52;;;1.08;;
72882;SDS011;61017;37.812;-122.286;2023-06-10T07:02:26;3.05;;;1.10;;
72882;SDS011;61017;37.812;-122.286;2023-06-10T07:03:57;2.50;;;1.00;;
72882;SDS011;61017;37.812;-122.286;2023-06-10T07:05:29;1.35;;;0.90;;
72882;SDS011;61017;37.812;-122.286;2023-06-10T07:07:00;1.60;;;1.10;;
72882;SDS011;61017;37.812;-122.286;2023-06-10T07:08:32;2.35;;;1.20;;
72882;SDS011;61017;37.812;-122.286;2023-06-10T07:10:04;1.77;;;1.00;;
72882;SDS011;61017;37.812;-122.286;2023-06-10T07:11:36;2.23;;;1.00;;
72882;SDS011;61017;37.812;-122.286;2023-06-10T07:13:07;1.80;;;1.00;;
72882;SDS011;61017;37.812;-122.286;2023-06-10T07:14:39;2.58;;;1.20;;
72882;SDS011;61017;37.812;-122.286;2023-06-10T07:16:10;1.88;;;1.20;;
72882;SDS011;61017;37.812;-122.286;2023-06-10T07:17:42;2.33;;;1.08;;
72882;SDS011;61017;37.812;-122.286;2023-06-10T07:19:14;3.22;;;1.40;;
72882;SDS011;61017;37.812;-122.286;2023-06-10T07:20:45;2.17;;;1.00;;
72882;SDS011;61017;37.812;-122.286;2023-06-10T07:22:17;1.50;;;1.10;;
72882;SDS011;61017;37.812;-122.286;2023-06-10T07:23:48;2.47;;;1.20;;
72882;SDS011;61017;37.812;-122.286;2023-06-10T07:25:20;1.77;;;1.10;;
72882;SDS011;61017;37.812;-122.286;2023-06-10T07:26:52;1.90;;;0.90;;
72882;SDS011;61017;37.812;-122.286;2023-06-10T07:28:23;1.77;;;1.10;;
72882;SDS011;61017;37.812;-122.286;2023-06-10T07:29:55;2.20;;;1.20;;
72882;SDS011;61017;37.812;-122.286;2023-06-10T07:31:26;2.03;;;1.10;;
72882;SDS011;61017;37.812;-122.286;2023-06-10T07:32:58;2.17;;;1.17;;
72882;SDS011;61017;37.812;-122.286;2023-06-10T07:34:30;2.13;;;1.20;;
72882;SDS011;61017;37.812;-122.286;2023-06-10T07:36:01;2.22;;;1.40;;
72882;SDS011;61017;37.812;-122.286;2023-06-10T07:37:33;3.63;;;1.27;;
72882;SDS011;61017;37.812;-122.286;2023-06-10T07:39:05;2.28;;;1.10;;
72882;SDS011;61017;37.812;-122.286;2023-06-10T07:40:36;2.83;;;1.10;;
72882;SDS011;61017;37.812;-122.286;2023-06-10T07:42:08;3.45;;;1.20;;
72882;SDS011;61017;37.812;-122.286;2023-06-10T07:43:40;1.88;;;1.20;;
72882;SDS011;61017;37.812;-122.286;2023-06-10T07:45:11;1.73;;;1.02;;
72882;SDS011;61017;37.812;-122.286;2023-06-10T07:46:43;2.20;;;1.10;;
72882;SDS011;61017;37.812;-122.286;2023-06-10T07:48:14;2.20;;;1.25;;
72882;SDS011;61017;37.812;-122.286;2023-06-10T07:49:46;1.83;;;1.10;;
72882;SDS011;61017;37.812;-122.286;2023-06-10T07:51:18;2.65;;;1.20;;
72882;SDS011;61017;37.812;-122.286;2023-06-10T07:52:49;3.63;;;1.20;;
72882;SDS011;61017;37.812;-122.286;2023-06-10T07:54:21;2.35;;;1.17;;
72882;SDS011;61017;37.812;-122.286;2023-06-10T07:55:53;2.13;;;1.23;;
72882;SDS011;61017;37.812;-122.286;2023-06-10T07:57:24;2.05;;;1.30;;
72882;SDS011;61017;37.812;-122.286;2023-06-10T07:58:56;2.17;;;1.20;;
72882;SDS011;61017;37.812;-122.286;2023-06-10T08:00:28;3.00;;;1.38;;
72882;SDS011;61017;37.812;-122.286;2023-06-10T08:01:59;2.95;;;1.30;;
72882;SDS011;61017;37.812;-122.286;2023-06-10T08:03:31;1.88;;;1.20;;
72882;SDS011;61017;37.812;-122.286;2023-06-10T08:05:03;3.67;;;1.20;;
72882;SDS011;61017;37.812;-122.286;2023-06-10T08:06:34;1.90;;;1.10;;
72882;SDS011;61017;37.812;-122.286;2023-06-10T08:08:06;3.13;;;1.42;;
72882;SDS011;61017;37.812;-122.286;2023-06-10T08:09:38;5.38;;;1.63;;
72882;SDS011;61017;37.812;-122.286;2023-06-10T08:11:13;2.17;;;1.20;;
72882;SDS011;61017;37.812;-122.286;2023-06-10T08:12:44;2.95;;;1.50;;
72882;SDS011;61017;37.812;-122.286;2023-06-10T08:14:16;2.30;;;1.33;;
72882;SDS011;61017;37.812;-122.286;2023-06-10T08:15:48;2.38;;;1.20;;
72882;SDS011;61017;37.812;-122.286;2023-06-10T08:17:19;2.25;;;1.17;;
72882;SDS011;61017;37.812;-122.286;2023-06-10T08:18:51;2.20;;;1.33;;
72882;SDS011;61017;37.812;-122.286;2023-06-10T08:20:22;3.53;;;1.30;;
72882;SDS011;61017;37.812;-122.286;2023-06-10T08:21:54;2.85;;;1.30;;
72882;SDS011;61017;37.812;-122.286;2023-06-10T08:23:26;2.42;;;1.33;;
72882;SDS011;61017;37.812;-122.286;2023-06-10T08:24:57;3.42;;;1.30;;
72882;SDS011;61017;37.812;-122.286;2023-06-10T08:26:32;3.25;;;1.40;;
72882;SDS011;61017;37.812;-122.286;2023-06-10T08:28:03;3.47;;;1.50;;
72882;SDS011;61017;37.812;-122.286;2023-06-10T08:29:35;2.47;;;1.40;;
72882;SDS011;61017;37.812;-122.286;2023-06-10T08:31:07;3.10;;;1.42;;
72882;SDS011;61017;37.812;-122.286;2023-06-10T08:32:39;2.53;;;1.30;;
72882;SDS011;61017;37.812;-122.286;2023-06-10T08:34:11;2.50;;;1.40;;
72882;SDS011;61017;37.812;-122.286;2023-06-10T08:35:42;3.42;;;1.40;;
72882;SDS011;61017;37.812;-122.286;2023-06-10T08:37:14;2.58;;;1.40;;
72882;SDS011;61017;37.812;-122.286;2023-06-10T08:38:45;3.45;;;1.40;;
72882;SDS011;61017;37.812;-122.286;2023-06-10T08:40:17;1.90;;;1.40;;
72882;SDS011;61017;37.812;-122.286;2023-06-10T08:42:23;2.92;;;1.50;;
72882;SDS011;61017;37.812;-122.286;2023-06-10T08:44:03;2.63;;;1.40;;
72882;SDS011;61017;37.812;-122.286;2023-06-10T08:45:51;2.03;;;1.30;;
72882;SDS011;61017;37.812;-122.286;2023-06-10T08:47:29;2.97;;;1.55;;
72882;SDS011;61017;37.812;-122.286;2023-06-10T08:49:05;2.72;;;1.20;;
72882;SDS011;61017;37.812;-122.286;2023-06-10T08:50:37;4.38;;;1.65;;
72882;SDS011;61017;37.812;-122.286;2023-06-10T08:52:09;3.43;;;1.47;;
72882;SDS011;61017;37.812;-122.286;2023-06-10T08:53:48;2.30;;;1.50;;
72882;SDS011;61017;37.812;-122.286;2023-06-10T08:55:30;3.53;;;1.50;;
72882;SDS011;61017;37.812;-122.286;2023-06-10T08:57:06;2.85;;;1.80;;
72882;SDS011;61017;37.812;-122.286;2023-06-10T08:58:37;2.42;;;1.30;;